Time;durP1;ratioP1;P1;durP2;ratioP2;P2;SDS_P1;SDS_P2;PMS_P1;PMS_P2;Temp;Humidity;BMP_temperature;BMP_pressure;BME280_temperature;BME280_humidity;BME280_pressure;Samples;Min_cycle;Max_cycle;Signal;HPM_P1;HPM_P2
2022/04/26 03:36:11;;;;;;;;;30.50;27.50;;;;;11.45;54.86;100949.25;5056330;28;45886;-61
2022/04/26 03:38:37;;;;;;;;;32.50;26.75;;;;;11.44;54.61;100947.50;5055932;28;45377;-61
2022/04/26 03:41:02;;;;;;;;;34.25;28.00;;;;;11.43;53.95;100946.66;5055397;28;45474;-60
2022/04/26 03:43:29;;;;;;;;;34.75;25.50;;;;;11.42;54.88;100946.69;5056504;28;65828;-61
2022/04/26 03:45:55;;;;;;;;;35.50;25.75;;;;;11.40;54.06;100957.22;5058195;28;46049;-61
2022/04/26 03:48:20;;;;;;;;;39.25;27.00;;;;;11.39;54.49;100958.13;5056086;28;45362;-60
2022/04/26 03:50:45;;;;;;;;;37.75;29.75;;;;;11.39;55.31;100952.91;5057043;28;64863;-61
2022/04/26 03:53:11;;;;;;;;;45.00;30.25;;;;;11.38;53.85;100953.78;5052144;28;61190;-60
2022/04/26 03:55:36;;;;;;;;;41.75;29.00;;;;;11.36;54.62;100951.19;5056341;28;61468;-60
2022/04/26 03:58:01;;;;;;;;;33.50;26.75;;;;;11.37;54.93;100949.47;5049874;28;59331;-61
2022/04/26 04:00:27;;;;;;;;;34.25;26.25;;;;;11.37;55.07;100952.06;5059102;28;58450;-61
2022/04/26 04:02:52;;;;;;;;;33.00;27.75;;;;;11.37;55.27;100957.31;5057617;28;70082;-60
2022/04/26 04:05:18;;;;;;;;;42.75;30.50;;;;;11.34;54.40;100960.88;5057828;28;67826;-61
2022/04/26 04:07:43;;;;;;;;;30.50;29.00;;;;;11.33;54.63;100964.41;5055139;28;49414;-61
2022/04/26 04:10:08;;;;;;;;;36.75;29.50;;;;;11.32;54.36;100964.44;5054333;28;65361;-60
2022/04/26 04:12:34;;;;;;;;;48.50;34.00;;;;;11.31;54.90;100967.94;5056656;28;45988;-60
2022/04/26 04:14:59;;;;;;;;;39.00;29.25;;;;;11.32;54.70;100972.31;5051627;28;45473;-61
2022/04/26 04:17:25;;;;;;;;;34.50;27.00;;;;;11.33;54.86;100974.00;5055509;28;45238;-60
2022/04/26 04:19:50;;;;;;;;;46.00;34.00;;;;;11.33;54.16;100974.00;5057266;28;66079;-60
2022/04/26 04:22:15;;;;;;;;;34.25;24.00;;;;;11.32;54.64;100972.31;5053382;28;61560;-61
2022/04/26 04:24:41;;;;;;;;;42.50;32.25;;;;;11.31;54.91;100979.28;5052457;28;45265;-61
2022/04/26 04:27:09;;;;;;;;;40.50;33.00;;;;;11.28;54.35;100974.13;5055136;28;61782;-61
2022/04/26 04:29:34;;;;;;;;;41.75;32.25;;;;;11.28;54.26;100979.38;5058866;28;45468;-60
2022/04/26 04:31:59;;;;;;;;;49.00;35.00;;;;;11.26;54.55;100975.94;5057516;28;47266;-60
2022/04/26 04:34:25;;;;;;;;;44.00;34.00;;;;;11.26;55.25;100988.16;5057082;28;67138;-60
2022/04/26 04:36:50;;;;;;;;;41.50;30.50;;;;;11.25;55.39;100994.31;5054638;28;61982;-61
2022/04/26 04:39:19;;;;;;;;;48.25;34.25;;;;;11.25;54.80;100994.31;5050982;28;65780;-61
2022/04/26 04:41:46;;;;;;;;;43.50;31.50;;;;;11.25;56.02;100997.78;5056702;28;46235;-61
2022/04/26 04:44:12;;;;;;;;;43.75;33.50;;;;;11.24;55.20;101003.91;5058480;28;46012;-60
2022/04/26 04:46:37;;;;;;;;;43.75;34.25;;;;;11.24;54.89;101006.53;5057603;28;64056;-60
2022/04/26 04:49:02;;;;;;;;;45.50;33.00;;;;;11.24;55.06;100998.69;5057497;28;62884;-61
2022/04/26 04:51:28;;;;;;;;;41.50;33.50;;;;;11.23;55.03;101006.59;5060245;28;46351;-61
2022/04/26 04:53:53;;;;;;;;;41.25;32.50;;;;;11.21;54.62;101007.50;5058875;28;45406;-61
2022/04/26 04:56:19;;;;;;;;;44.00;34.00;;;;;11.21;55.27;101014.50;5077348;28;45424;-62
2022/04/26 04:58:44;;;;;;;;;43.75;33.00;;;;;11.16;55.22;101011.13;5059779;28;45493;-61
2022/04/26 05:01:10;;;;;;;;;44.25;34.00;;;;;11.18;55.89;101015.41;5062140;28;47011;-61
2022/04/26 05:03:35;;;;;;;;;44.75;36.50;;;;;11.20;55.69;101016.22;5054624;28;64103;-61
2022/04/26 05:06:00;;;;;;;;;47.00;36.75;;;;;11.23;55.25;101028.41;5058883;28;62033;-61
2022/04/26 05:08:26;;;;;;;;;40.50;32.00;;;;;11.27;55.25;101021.34;5055678;28;45411;-61
2022/04/26 05:10:52;;;;;;;;;48.00;36.00;;;;;11.26;54.79;101024.84;5060474;28;48208;-62
2022/04/26 05:13:17;;;;;;;;;46.25;33.25;;;;;11.24;55.43;101030.13;5058656;28;45363;-62
2022/04/26 05:15:44;;;;;;;;;37.25;33.50;;;;;11.23;56.13;101031.03;5061394;28;45323;-61
2022/04/26 05:18:11;;;;;;;;;50.00;36.75;;;;;11.23;55.28;101044.13;5054385;28;45929;-61
2022/04/26 05:20:37;;;;;;;;;45.50;34.50;;;;;11.24;55.71;101044.97;5059368;28;47321;-62
2022/04/26 05:25:46;;;;;;;;;54.50;36.25;;;;;11.20;55.47;101041.56;5060448;28;45224;-61
2022/04/26 05:28:12;;;;;;;;;49.75;36.00;;;;;11.20;55.42;101046.81;5057549;28;50636;-61
2022/04/26 05:30:37;;;;;;;;;52.25;36.25;;;;;11.23;55.24;101054.59;5060832;28;69729;-61
2022/04/26 05:33:02;;;;;;;;;53.75;38.75;;;;;11.25;55.74;101055.44;5058457;28;65964;-61
2022/04/26 05:35:28;;;;;;;;;58.00;40.50;;;;;11.26;54.99;101062.41;5060313;28;54193;-61
2022/04/26 05:37:53;;;;;;;;;50.75;38.75;;;;;11.26;55.46;101057.16;5049662;28;59207;-61
2022/04/26 05:40:18;;;;;;;;;49.00;37.50;;;;;11.30;55.05;101063.19;5060107;28;45450;-61
2022/04/26 05:42:44;;;;;;;;;51.75;38.50;;;;;11.31;55.14;101067.50;5054075;28;65277;-62
2022/04/26 05:45:09;;;;;;;;;60.25;41.00;;;;;11.32;55.53;101077.09;5058292;28;64037;-61
2022/04/26 05:47:43;;;;;;;;;59.50;37.00;;;;;11.31;55.68;101076.22;5052822;28;66535;-61
2022/04/26 05:50:09;;;;;;;;;56.25;39.75;;;;;11.31;56.00;101080.59;5068800;28;47331;-61
2022/04/26 05:52:35;;;;;;;;;55.00;36.75;;;;;11.31;55.85;101078.00;5059154;28;46333;-61
2022/04/26 05:55:04;;;;;;;;;54.25;39.75;;;;;11.31;55.85;101078.84;5059630;28;45450;-61
2022/04/26 05:57:29;;;;;;;;;59.50;39.25;;;;;11.34;55.42;101083.16;5055038;28;45371;-61
2022/04/26 05:59:55;;;;;;;;;51.00;37.50;;;;;11.34;56.25;101078.78;5058467;28;48115;-60
2022/04/26 06:02:20;;;;;;;;;55.75;40.25;;;;;11.37;55.55;101083.09;5060526;28;65370;-60
2022/04/26 06:04:46;;;;;;;;;59.25;40.00;;;;;11.38;55.56;101088.31;5061744;27;64726;-61
2022/04/26 06:07:11;;;;;;;;;59.00;43.00;;;;;11.40;55.70;101081.25;5058748;28;45380;-61
2022/04/26 06:09:37;;;;;;;;;56.75;41.50;;;;;11.45;55.30;101082.91;5054734;28;65952;-61
2022/04/26 06:12:06;;;;;;;;;60.25;41.50;;;;;11.48;55.58;101074.97;5058570;28;46026;-61
2022/04/26 06:14:32;;;;;;;;;54.25;41.75;;;;;11.50;55.46;101081.88;5056962;28;45572;-61
2022/04/26 06:16:57;;;;;;;;;57.50;42.50;;;;;11.52;55.17;101081.84;5058166;28;59594;-61
2022/04/26 06:19:23;;;;;;;;;57.25;42.75;;;;;11.54;55.28;101083.53;5060712;28;46114;-62
2022/04/26 06:21:48;;;;;;;;;54.25;39.75;;;;;11.57;55.80;101074.72;5059914;28;45595;-60
2022/04/26 06:24:13;;;;;;;;;55.25;43.50;;;;;11.60;56.19;101079.91;5052380;28;64524;-61
2022/04/26 06:26:39;;;;;;;;;58.75;43.00;;;;;11.63;55.53;101073.69;5058920;28;45301;-61
2022/04/26 06:29:04;;;;;;;;;60.75;44.25;;;;;11.67;55.58;101081.44;5053607;28;58586;-60
2022/04/26 06:31:30;;;;;;;;;56.75;40.25;;;;;11.71;56.03;101088.31;5059230;28;63135;-60
2022/04/26 06:33:55;;;;;;;;;59.25;42.75;;;;;11.73;55.38;101090.91;5053197;28;45613;-60
2022/04/26 06:36:20;;;;;;;;;62.00;46.25;;;;;11.74;55.35;101090.88;5059972;28;60126;-60
2022/04/26 06:38:46;;;;;;;;;58.25;44.25;;;;;11.79;55.26;101101.22;5053182;28;68802;-60
2022/04/26 06:41:11;;;;;;;;;57.75;44.00;;;;;11.82;55.47;101098.53;5060358;28;45327;-61
2022/04/26 06:43:36;;;;;;;;;63.50;44.50;;;;;11.84;55.20;101095.88;5051396;28;60793;-60
2022/04/26 06:46:02;;;;;;;;;60.25;43.25;;;;;11.86;55.50;101109.81;5059321;28;45511;-59
2022/04/26 06:48:27;;;;;;;;;63.50;45.50;;;;;11.86;55.36;101109.81;5056172;28;46029;-59
2022/04/26 06:50:56;;;;;;;;;62.75;43.25;;;;;11.87;54.93;101112.38;5058841;28;45453;-59
2022/04/26 06:53:22;;;;;;;;;59.25;45.00;;;;;11.83;55.48;101107.25;5054582;28;45454;-58
2022/04/26 06:55:47;;;;;;;;;56.25;43.50;;;;;11.86;55.23;101115.03;5059431;28;45513;-59
2022/04/26 06:58:12;;;;;;;;;60.25;43.00;;;;;11.88;55.41;101113.25;5053169;28;65587;-59
2022/04/26 07:00:38;;;;;;;;;61.50;44.00;;;;;11.92;55.13;101110.53;5059568;28;65224;-59
2022/04/26 07:03:04;;;;;;;;;56.75;44.00;;;;;11.95;54.95;101115.72;5053052;28;59127;-60
2022/04/26 07:05:29;;;;;;;;;63.00;41.50;;;;;11.95;55.00;101115.72;5057572;28;45683;-60
2022/04/26 07:07:55;;;;;;;;;63.25;46.25;;;;;11.94;55.28;101119.22;5055138;28;69633;-60
2022/04/26 07:10:21;;;;;;;;;65.25;45.25;;;;;12.00;54.94;101120.81;5054075;28;63324;-61
2022/04/26 07:12:47;;;;;;;;;58.50;43.00;;;;;12.03;55.24;101125.13;5056713;28;45371;-59
2022/04/26 07:15:12;;;;;;;;;58.00;43.50;;;;;12.07;55.27;101118.91;5055471;28;67196;-62
2022/04/26 07:17:40;;;;;;;;;63.00;44.50;;;;;12.13;54.98;101119.59;5058165;28;45283;-59
2022/04/26 07:20:05;;;;;;;;;60.50;42.75;;;;;12.17;55.28;101116.91;5054201;28;45840;-59
2022/04/26 07:22:32;;;;;;;;;58.25;43.25;;;;;12.29;54.28;101127.06;5053672;28;45339;-59
2022/04/26 07:24:57;;;;;;;;;66.00;44.75;;;;;12.35;54.43;101130.34;5057924;28;45848;-59
2022/04/26 07:27:22;;;;;;;;;63.25;45.25;;;;;12.43;54.41;101127.53;5055167;28;45457;-59
2022/04/26 07:29:51;;;;;;;;;57.25;42.50;;;;;12.48;54.52;101122.13;5051178;28;45444;-59
2022/04/26 07:32:16;;;;;;;;;64.50;45.75;;;;;12.53;54.43;101126.34;5056234;28;45335;-59
2022/04/26 07:34:42;;;;;;;;;63.50;45.25;;;;;12.60;54.42;101129.66;5057770;28;56748;-58
2022/04/26 07:37:07;;;;;;;;;61.75;45.25;;;;;12.68;54.11;101130.28;5057018;28;46231;-58
2022/04/26 07:39:34;;;;;;;;;62.25;44.75;;;;;12.75;54.06;101136.22;5050907;28;45505;-58
2022/04/26 07:41:59;;;;;;;;;65.00;47.50;;;;;12.78;53.90;101140.53;5056962;28;45514;-58
2022/04/26 07:44:25;;;;;;;;;59.00;44.00;;;;;12.81;54.18;101148.31;5052250;28;45593;-58
2022/04/26 07:46:50;;;;;;;;;59.75;42.75;;;;;12.87;53.76;101148.13;5039313;28;68134;-59
2022/04/26 07:49:16;;;;;;;;;58.25;44.25;;;;;12.91;53.90;101160.28;5051278;28;45323;-60
2022/04/26 07:51:42;;;;;;;;;62.00;44.25;;;;;12.95;53.72;101164.53;5056513;28;45521;-58
2022/04/26 07:54:07;;;;;;;;;56.00;43.25;;;;;12.99;53.34;101160.03;5073104;27;45677;-59
2022/04/26 07:56:33;;;;;;;;;59.50;45.00;;;;;13.02;53.81;101158.19;5058280;28;46978;-59
2022/04/26 07:58:59;;;;;;;;;51.75;41.25;;;;;13.01;53.75;101156.44;5046640;28;65189;-59
2022/04/26 08:01:25;;;;;;;;;60.50;44.50;;;;;13.09;53.25;101164.97;5056968;28;45403;-58
2022/04/26 08:03:51;;;;;;;;;57.50;43.25;;;;;13.14;53.07;101162.22;5057133;28;45382;-59
2022/04/26 08:06:17;;;;;;;;;61.00;43.75;;;;;13.17;53.05;101172.59;5049036;28;46504;-59
2022/04/26 08:08:42;;;;;;;;;54.00;40.25;;;;;13.19;53.03;101173.44;5055093;28;45332;-59
2022/04/26 08:11:11;;;;;;;;;57.75;42.00;;;;;13.22;52.76;101172.47;5058778;28;45223;-59
2022/04/26 08:13:37;;;;;;;;;57.25;41.00;;;;;13.26;52.44;101180.22;5048795;28;45472;-59
2022/04/26 08:16:03;;;;;;;;;61.25;42.00;;;;;13.31;52.42;101182.72;5058120;28;45406;-59
2022/04/26 08:18:29;;;;;;;;;60.50;42.75;;;;;13.36;52.28;101172.06;5052619;28;45463;-59
2022/04/26 08:20:55;;;;;;;;;59.75;44.50;;;;;13.41;52.08;101184.16;5060594;28;45433;-58
2022/04/26 08:23:20;;;;;;;;;57.00;44.75;;;;;13.43;51.88;101184.97;5055405;28;45491;-58
2022/04/26 08:28:30;;;;;;;;;62.75;43.00;;;;;13.45;51.80;101190.19;5056479;28;45989;-58
2022/04/26 08:30:56;;;;;;;;;50.00;36.50;;;;;13.48;51.68;101196.19;5063099;28;45331;-58
2022/04/26 08:33:21;;;;;;;;;55.25;43.75;;;;;13.48;51.75;101192.72;5056208;28;45521;-59
2022/04/26 08:35:47;;;;;;;;;66.50;50.00;;;;;13.53;51.78;101206.59;5061274;28;46166;-59
2022/04/26 08:38:12;;;;;;;;;66.75;47.25;;;;;13.57;51.44;101210.81;5051515;28;45474;-59
2022/04/26 08:40:37;;;;;;;;;57.00;43.75;;;;;13.55;51.20;101209.16;5053870;28;45373;-59
2022/04/26 08:43:03;;;;;;;;;60.75;42.75;;;;;13.50;51.25;101214.56;5056366;28;65158;-59
2022/04/26 08:45:28;;;;;;;;;60.00;43.00;;;;;13.47;51.37;101212.91;5060438;28;46010;-60
2022/04/26 08:53:22;;;;;;;;;60.25;41.25;;;;;13.44;51.30;101222.66;5054582;28;46950;-59
2022/04/26 08:55:50;;;;;;;;;52.75;41.50;;;;;13.45;51.17;101225.22;5057523;28;46118;-59
2022/04/26 08:58:15;;;;;;;;;58.00;41.25;;;;;13.57;51.25;101223.97;5056277;28;45296;-59
2022/04/26 09:01:03;;;;;;;;;57.25;43.00;;;;;13.67;51.17;101224.56;5060586;28;46886;-59
2022/04/26 09:03:32;;;;;;;;;63.25;44.25;;;;;13.79;50.89;101223.28;5056203;28;45368;-59
2022/04/26 09:06:07;;;;;;;;;61.50;43.00;;;;;13.89;50.31;101227.34;5061764;28;45337;-59
2022/04/26 09:08:34;;;;;;;;;54.50;41.00;;;;;14.04;50.37;101226.84;5059106;28;45377;-59
2022/04/26 09:11:00;;;;;;;;;57.75;41.50;;;;;14.51;49.83;101230.50;5061798;28;45492;-59
2022/04/26 09:13:25;;;;;;;;;54.50;42.25;;;;;14.76;49.47;101233.16;5055484;28;45484;-59
2022/04/26 09:15:54;;;;;;;;;53.50;41.00;;;;;14.76;49.01;101236.63;5061380;28;50200;-59
2022/04/26 09:18:24;;;;;;;;;60.50;43.00;;;;;14.66;48.88;101247.56;5054343;28;45352;-59
2022/04/26 09:20:52;;;;;;;;;58.00;42.75;;;;;14.52;49.18;101248.91;5058365;28;45598;-59
2022/04/26 09:23:19;;;;;;;;;56.50;42.00;;;;;14.37;49.22;101247.63;5054106;28;46731;-59
2022/04/26 09:25:45;;;;;;;;;60.00;43.75;;;;;14.26;49.16;101249.78;5057923;28;46974;-59
2022/04/26 09:28:20;;;;;;;;;57.75;44.00;;;;;14.15;49.15;101255.44;5056879;28;45398;-59
2022/04/26 09:30:45;;;;;;;;;56.50;43.50;;;;;14.07;49.24;101254.81;5059852;28;46827;-59
2022/04/26 09:33:11;;;;;;;;;59.00;44.00;;;;;14.02;49.34;101264.63;5053253;28;62942;-59
2022/04/26 09:35:36;;;;;;;;;53.50;40.75;;;;;13.99;49.84;101260.34;5057285;28;69824;-59
2022/04/26 09:38:03;;;;;;;;;54.75;41.50;;;;;13.97;49.77;101258.66;5058179;28;60844;-61
2022/04/26 09:40:29;;;;;;;;;59.25;42.50;;;;;13.92;49.81;101264.09;5042524;28;45542;-61
2022/04/26 09:42:54;;;;;;;;;58.00;42.25;;;;;13.93;49.54;101263.16;5056425;28;45285;-68
2022/04/26 09:45:20;;;;;;;;;56.50;40.00;;;;;13.93;49.69;101270.19;5058820;28;67049;-64
2022/04/26 09:47:46;;;;;;;;;54.50;44.00;;;;;13.90;49.65;101268.53;5054842;28;45957;-62
2022/04/26 09:50:13;;;;;;;;;69.75;47.00;;;;;13.89;49.68;101272.06;5060763;28;45496;-64
2022/04/26 09:52:38;;;;;;;;;57.50;42.75;;;;;13.88;49.95;101278.22;5059233;28;45355;-56
2022/04/26 09:55:07;;;;;;;;;57.00;42.50;;;;;13.90;49.84;101279.06;5060972;28;46196;-61
2022/04/26 09:57:33;;;;;;;;;60.50;41.75;;;;;13.91;49.66;101272.88;5058239;28;45399;-62
2022/04/26 09:59:59;;;;;;;;;48.75;37.25;;;;;13.95;49.78;101279.78;5057775;28;45414;-59
2022/04/26 10:02:28;;;;;;;;;59.75;42.75;;;;;14.00;50.23;101280.47;5057093;28;45563;-59
2022/04/26 10:04:55;;;;;;;;;59.50;42.50;;;;;14.08;49.91;101290.75;5036602;28;46291;-60
2022/04/26 10:07:20;;;;;;;;;59.25;44.00;;;;;14.11;49.54;101284.53;5050459;28;45291;-56
2022/04/26 10:09:46;;;;;;;;;52.25;42.25;;;;;14.17;49.74;101292.22;5037452;28;45396;-49
2022/04/26 10:12:11;;;;;;;;;55.75;44.75;;;;;14.27;49.69;101283.13;5053128;28;45549;-61
2022/04/26 10:14:37;;;;;;;;;56.50;40.50;;;;;14.35;49.03;101282.84;5060111;28;65780;-61
2022/04/26 10:17:02;;;;;;;;;56.00;43.25;;;;;14.29;49.36;101260.22;5057914;28;64462;-61
2022/04/26 10:19:41;;;;;;;;;52.75;40.50;;;;;14.45;48.80;101281.63;5055713;28;45774;-56
2022/04/26 10:22:11;;;;;;;;;51.75;38.25;;;;;14.53;48.78;101282.19;5059628;28;45503;-54
2022/04/26 10:24:39;;;;;;;;;53.50;39.75;;;;;14.63;48.75;101280.16;5045955;28;46297;-53
2022/04/26 10:27:23;;;;;;;;;53.25;40.00;;;;;14.75;48.17;101282.38;5059041;28;46019;-56
2022/04/26 10:29:48;;;;;;;;;51.00;40.50;;;;;16.10;48.39;101286.88;5058616;28;45271;-56
2022/04/26 10:32:30;;;;;;;;;57.25;41.75;;;;;18.39;45.58;101287.94;5056764;28;45395;-46
2022/04/26 10:34:56;;;;;;;;;53.50;42.25;;;;;20.24;43.02;101283.22;5060007;28;46221;-58
2022/04/26 10:37:21;;;;;;;;;55.00;40.25;;;;;21.23;41.18;101288.75;5059814;28;46998;-49
2022/04/26 10:39:49;;;;;;;;;49.00;38.00;;;;;21.53;38.80;101287.75;5060841;28;45232;-50
2022/04/26 10:42:15;;;;;;;;;53.00;38.25;;;;;20.83;39.04;101299.19;5040895;28;45548;-57
2022/04/26 10:44:41;;;;;;;;;50.00;39.50;;;;;20.08;40.68;101296.53;5058087;28;46106;-53
2022/04/26 10:47:07;;;;;;;;;50.00;40.00;;;;;19.49;40.37;101298.94;5058476;28;45240;-53
2022/04/26 10:49:32;;;;;;;;;50.67;39.33;;;;;19.00;40.51;101301.59;5055845;28;45382;-50
2022/04/26 10:52:24;;;;;;;;;51.67;40.00;;;;;18.62;41.46;101285.91;5057424;28;45837;-58
2022/04/26 10:54:55;;;;;;;;;50.75;39.00;;;;;18.45;41.62;101286.75;5058269;28;46179;-53
2022/04/26 10:57:22;;;;;;;;;58.75;43.25;;;;;18.29;41.10;101290.19;5055648;28;46052;-49
2022/04/26 10:59:59;;;;;;;;;50.50;39.75;;;;;18.19;41.84;101291.59;5058054;28;45362;-56
2022/04/26 11:02:25;;;;;;;;;51.50;41.00;;;;;18.03;41.28;101289.69;5056269;28;45205;-57
2022/04/26 11:05:01;;;;;;;;;53.25;41.00;;;;;17.88;42.68;101293.09;5054926;28;46365;-56
2022/04/26 11:07:28;;;;;;;;;53.00;41.00;;;;;17.70;42.09;101288.66;5061568;28;45532;-54
2022/04/26 11:09:55;;;;;;;;;51.50;36.50;;;;;17.59;42.23;101291.81;5056449;28;45354;-56
2022/04/26 11:12:27;;;;;;;;;49.00;37.25;;;;;17.58;42.48;101298.03;5056406;28;45507;-56
2022/04/26 11:14:57;;;;;;;;;56.00;39.25;;;;;17.49;42.46;101288.75;5055048;28;48375;-59
2022/04/26 11:17:23;;;;;;;;;46.50;37.75;;;;;17.51;42.04;101288.66;5057740;28;45423;-59
2022/04/26 11:19:49;;;;;;;;;50.75;38.00;;;;;17.53;42.52;101285.03;5058015;28;45283;-58
2022/04/26 11:22:15;;;;;;;;;43.50;36.00;;;;;17.60;41.70;101288.22;5056625;28;45795;-60
2022/04/26 11:30:09;;;;;;;;;46.50;36.75;;;;;17.50;41.85;101285.19;5059742;28;45398;-55
2022/04/26 11:32:35;;;;;;;;;52.25;38.00;;;;;17.34;42.40;101285.03;5057270;28;45598;-51
2022/04/26 11:35:01;;;;;;;;;47.50;35.00;;;;;17.21;42.64;101283.88;5051385;28;45368;-49
2022/04/26 11:37:26;;;;;;;;;51.00;38.25;;;;;17.10;42.62;101283.53;5057267;28;45347;-51
2022/04/26 11:39:52;;;;;;;;;48.25;35.75;;;;;17.04;43.11;101279.38;5052476;28;45371;-52
2022/04/26 11:42:17;;;;;;;;;45.00;32.50;;;;;17.18;43.03;101294.63;5056202;28;45564;-51
2022/04/26 11:44:58;;;;;;;;;45.50;34.25;;;;;17.19;42.69;101291.91;5055477;28;68094;-51
2022/04/26 11:47:41;;;;;;;;;48.25;35.75;;;;;17.12;42.83;101289.59;5057251;28;45950;-51
2022/04/26 11:50:22;;;;;;;;;44.50;34.75;;;;;16.99;42.92;101287.50;5048282;28;45295;-51
2022/04/26 11:52:49;;;;;;;;;43.00;35.00;;;;;16.95;42.76;101288.56;5053607;28;45816;-49
2022/04/26 11:55:28;;;;;;;;;42.75;34.50;;;;;17.01;42.74;101288.28;5050626;28;45647;-49
2022/04/26 11:58:05;;;;;;;;;44.00;35.50;;;;;17.18;42.35;101287.53;5052347;28;45478;-52
2022/04/26 12:00:31;;;;;;;;;46.75;37.00;;;;;17.25;42.90;101290.75;5054344;28;45540;-50
2022/04/26 12:02:57;;;;;;;;;44.25;34.25;;;;;17.19;42.48;101288.38;5055181;28;45615;-50
2022/04/26 12:05:22;;;;;;;;;43.25;33.00;;;;;17.15;42.70;101286.81;5038304;28;69159;-51
2022/04/26 12:07:48;;;;;;;;;45.00;35.75;;;;;17.13;42.82;101294.81;5056218;28;60855;-47
2022/04/26 12:10:27;;;;;;;;;44.50;35.25;;;;;17.18;42.76;101284.03;5050986;28;45577;-49
2022/04/26 12:12:57;;;;;;;;;45.25;33.50;;;;;17.24;42.61;101295.16;5054763;28;45572;-54
2022/04/26 12:15:26;;;;;;;;;40.00;32.25;;;;;17.27;42.64;101299.47;5059063;28;46331;-47
2022/04/26 12:18:14;;;;;;;;;29.50;28.75;;;;;17.26;42.60;101296.00;5053260;28;45389;-50
2022/04/26 12:20:56;;;;;;;;;39.50;33.00;;;;;17.27;42.71;101288.91;5058812;28;45197;-50
2022/04/26 12:23:22;;;;;;;;;42.50;33.00;;;;;17.29;42.67;101287.03;5051050;28;45355;-51
2022/04/26 12:26:03;;;;;;;;;46.50;33.00;;;;;17.29;42.49;101288.84;5059130;28;45331;-48
2022/04/26 12:28:28;;;;;;;;;48.00;33.50;;;;;17.27;42.50;101299.47;5052685;28;45384;-49
2022/04/26 12:30:54;;;;;;;;;39.25;28.25;;;;;17.24;42.41;101302.25;5058241;28;45354;-52
2022/04/26 12:33:26;;;;;;;;;36.25;29.25;;;;;17.19;42.75;101293.66;5052749;28;46034;-48
2022/04/26 12:36:04;;;;;;;;;45.25;31.50;;;;;17.14;42.03;101298.31;5058288;28;46194;-50
2022/04/26 12:38:30;;;;;;;;;38.75;32.00;;;;;17.20;41.96;101288.31;5056115;28;45977;-50
2022/04/26 12:41:03;;;;;;;;;45.50;32.00;;;;;17.25;41.95;101288.97;5059184;28;45245;-52
2022/04/26 12:43:29;;;;;;;;;38.25;31.25;;;;;17.32;41.84;101286.91;5054097;28;47930;-52
2022/04/26 12:46:02;;;;;;;;;39.75;32.00;;;;;17.37;41.79;101289.31;5056474;28;47181;-51
2022/04/26 12:51:24;;;;;;;;;31.50;28.00;;;;;17.28;41.59;101282.66;5058186;28;45333;-49
2022/04/26 12:53:51;;;;;;;;;37.00;30.75;;;;;17.30;41.44;101278.19;5054646;28;45440;-51
2022/04/26 12:56:17;;;;;;;;;34.25;30.00;;;;;17.33;41.88;101278.00;5058151;28;46164;-52
2022/04/26 12:58:44;;;;;;;;;33.50;27.00;;;;;17.34;41.49;101273.59;5056755;28;45631;-51
2022/04/26 13:01:09;;;;;;;;;31.25;26.00;;;;;17.33;41.35;101280.66;5058834;28;45168;-48
2022/04/26 13:03:35;;;;;;;;;29.50;26.75;;;;;17.36;41.19;101280.53;5056072;28;45207;-49
2022/04/26 13:06:07;;;;;;;;;33.00;29.75;;;;;17.38;41.31;101276.03;5057832;28;46032;-50
2022/04/26 13:08:33;;;;;;;;;33.00;30.00;;;;;17.35;41.52;101273.53;5052530;28;45897;-49
2022/04/26 13:10:58;;;;;;;;;36.75;30.00;;;;;17.36;41.32;101269.94;5061869;28;45640;-49
2022/04/26 13:13:24;;;;;;;;;38.75;29.75;;;;;17.36;41.42;101262.00;5055305;28;66967;-49
2022/04/26 13:15:49;;;;;;;;;34.25;29.25;;;;;17.36;41.37;101263.81;5061035;28;46094;-51
2022/04/26 13:18:18;;;;;;;;;35.75;29.25;;;;;17.45;41.25;101277.44;5053103;28;69677;-49
2022/04/26 13:20:44;;;;;;;;;30.25;29.00;;;;;17.50;41.25;101277.25;5060033;28;45319;-52
2022/04/26 13:23:10;;;;;;;;;34.25;30.00;;;;;17.59;40.96;101273.28;5055577;28;45441;-51
2022/04/26 13:25:35;;;;;;;;;33.50;27.25;;;;;17.62;40.85;101265.22;5061820;28;46381;-52
2022/04/26 13:28:04;;;;;;;;;30.75;23.25;;;;;17.65;40.99;101259.75;5054357;28;67793;-49
2022/04/26 13:30:30;;;;;;;;;29.00;25.25;;;;;17.64;41.03;101263.34;5062365;28;45225;-53
2022/04/26 13:32:55;;;;;;;;;26.50;22.50;;;;;17.69;40.86;101256.06;5054430;28;66850;-51
2022/04/26 13:35:21;;;;;;;;;29.25;27.50;;;;;17.74;40.90;101261.09;5060975;28;45949;-51
2022/04/26 13:37:47;;;;;;;;;30.50;24.25;;;;;17.73;40.53;101254.97;5057668;28;45788;-52
2022/04/26 13:40:12;;;;;;;;;27.25;24.75;;;;;17.69;40.76;101256.06;5060392;28;45260;-49
2022/04/26 13:42:38;;;;;;;;;29.50;24.00;;;;;17.67;40.42;101257.03;5058690;28;60788;-49
2022/04/26 13:45:04;;;;;;;;;27.75;23.75;;;;;17.69;40.89;101255.16;5061132;28;46462;-52
2022/04/26 13:47:30;;;;;;;;;26.50;24.25;;;;;17.70;40.18;101247.16;5058622;28;45962;-51
2022/04/26 13:49:55;;;;;;;;;31.50;28.50;;;;;17.71;40.75;101251.53;5052747;28;45568;-52
2022/04/26 13:52:21;;;;;;;;;29.00;26.50;;;;;17.74;40.70;101246.09;5059458;28;45421;-53
2022/04/26 13:54:46;;;;;;;;;29.00;24.75;;;;;17.79;40.46;101244.06;5054380;28;46347;-50
2022/04/26 13:57:12;;;;;;;;;27.75;23.75;;;;;17.86;40.08;101238.50;5059118;28;45256;-50
2022/04/26 13:59:37;;;;;;;;;24.75;22.75;;;;;17.94;40.47;101231.06;5060315;28;45363;-53
2022/04/26 14:02:03;;;;;;;;;29.75;28.50;;;;;18.00;40.38;101236.03;5056212;28;46671;-53
2022/04/26 14:04:29;;;;;;;;;29.75;24.75;;;;;18.03;40.12;101242.03;5060685;28;46260;-50
2022/04/26 14:06:54;;;;;;;;;24.50;21.75;;;;;18.01;40.14;101237.75;5057110;28;58754;-51
2022/04/26 14:09:21;;;;;;;;;25.25;23.00;;;;;17.97;40.22;101242.34;5056692;28;45334;-49
2022/04/26 14:11:47;;;;;;;;;29.50;26.00;;;;;17.94;40.42;101241.66;5059343;28;46733;-51
2022/04/26 14:22:32;;;;;;;;;23.25;21.00;;;;;17.85;40.30;101234.97;5055254;28;45707;-50
2022/04/26 14:25:03;;;;;;;;;23.75;21.75;;;;;17.80;39.84;101229.06;5058199;28;45450;-50
2022/04/26 14:27:32;;;;;;;;;23.50;22.00;;;;;17.79;39.74;101228.16;5055097;28;45465;-50
2022/04/26 14:29:57;;;;;;;;;23.00;20.00;;;;;17.78;39.76;101230.91;5058074;28;45457;-51
2022/04/26 14:32:23;;;;;;;;;26.25;23.00;;;;;17.75;39.75;101231.91;5057102;28;45467;-50
2022/04/26 14:34:48;;;;;;;;;21.25;19.00;;;;;17.76;39.62;101225.69;5055239;28;49038;-48
2022/04/26 14:37:14;;;;;;;;;24.00;19.75;;;;;17.80;39.93;101224.59;5058010;28;45145;-50
2022/04/26 14:39:40;;;;;;;;;21.25;18.50;;;;;17.84;39.74;101228.81;5057254;28;45290;-53
2022/04/26 14:42:05;;;;;;;;;23.50;20.50;;;;;17.85;39.92;101237.63;5059132;28;45567;-53
2022/04/26 14:44:31;;;;;;;;;21.00;20.25;;;;;17.86;39.99;101230.56;5058312;28;46247;-52
2022/04/26 14:46:57;;;;;;;;;22.25;17.50;;;;;17.83;39.86;101232.41;5057326;28;45470;-53
2022/04/26 14:49:23;;;;;;;;;20.75;18.25;;;;;17.82;39.89;101235.13;5052016;28;45323;-53
2022/04/26 14:51:48;;;;;;;;;18.25;18.25;;;;;17.82;38.84;101229.81;5059192;28;45414;-52
2022/04/26 14:54:14;;;;;;;;;19.25;19.25;;;;;17.80;38.59;101229.91;5050872;28;61125;-51
2022/04/26 14:56:39;;;;;;;;;18.00;16.00;;;;;17.80;39.01;101227.25;5059735;28;45789;-49
2022/04/26 14:59:06;;;;;;;;;19.50;17.50;;;;;17.80;38.62;101234.34;5040368;28;45466;-51
2022/04/26 15:01:32;;;;;;;;;15.25;14.50;;;;;17.77;39.31;101227.41;5060945;28;45259;-51
2022/04/26 15:03:57;;;;;;;;;17.00;15.50;;;;;17.76;39.12;101231.00;5054791;28;45951;-50
2022/04/26 15:06:22;;;;;;;;;18.00;16.50;;;;;17.77;38.96;101227.41;5060537;28;45157;-48
2022/04/26 15:11:32;;;;;;;;;18.25;16.25;;;;;17.82;38.99;101233.31;5060040;28;45287;-50
2022/04/26 15:16:46;;;;;;;;;19.00;17.50;;;;;17.83;38.29;101235.06;5059285;28;45731;-55